createdAt,value
2022-09-10T00:00:04.083Z,20.9
2022-09-10T00:01:17.591Z,20.9
2022-09-10T00:02:30.226Z,20.96
2022-09-10T00:03:33.716Z,20.92
2022-09-10T00:04:46.225Z,20.96
2022-09-10T00:05:59.601Z,20.92
2022-09-10T00:07:12.114Z,20.9
2022-09-10T00:08:15.690Z,20.88
2022-09-10T00:09:28.200Z,20.85
2022-09-10T00:10:41.576Z,20.83
2022-09-10T00:11:44.179Z,20.78
2022-09-10T00:12:57.544Z,20.76
2022-09-10T00:14:09.972Z,20.73
2022-09-10T00:15:13.086Z,20.73
2022-09-10T00:16:25.580Z,20.69
2022-09-10T00:17:39.081Z,20.66
2022-09-10T00:18:41.590Z,20.66
2022-09-10T00:19:54.572Z,20.64
2022-09-10T00:21:07.016Z,20.61
2022-09-10T00:22:20.070Z,20.61
2022-09-10T00:23:22.575Z,20.59
2022-09-10T00:24:36.098Z,20.58
2022-09-10T00:25:48.560Z,20.58
2022-09-10T00:26:52.062Z,20.55
2022-09-10T00:28:04.513Z,20.55
2022-09-10T00:29:18.076Z,20.57
2022-09-10T00:30:30.505Z,20.55
2022-09-10T00:31:34.128Z,20.51
2022-09-10T00:32:46.686Z,20.49
2022-09-10T00:34:00.068Z,20.45
2022-09-10T00:35:02.640Z,20.45
2022-09-10T00:36:16.067Z,20.44
2022-09-10T00:37:28.531Z,20.39
2022-09-10T00:38:32.124Z,20.38
2022-09-10T00:39:44.665Z,20.38
2022-09-10T00:40:58.077Z,20.35
2022-09-10T00:42:00.613Z,20.37
2022-09-10T00:43:14.090Z,20.32
2022-09-10T00:44:26.637Z,20.34
2022-09-10T00:45:40.277Z,20.34
2022-09-10T00:46:42.910Z,20.34
2022-09-10T00:47:56.100Z,20.31
2022-09-10T00:49:08.583Z,20.31
2022-09-10T00:50:12.089Z,20.28
2022-09-10T00:51:24.569Z,20.25
2022-09-10T00:52:39.927Z,20.25
2022-09-10T00:53:42.832Z,20.22
2022-09-10T00:54:56.071Z,20.21
2022-09-10T00:56:08.548Z,20.21
2022-09-10T00:57:22.085Z,20.21
2022-09-10T00:58:24.638Z,20.19
2022-09-10T00:59:38.099Z,20.19
2022-09-10T01:00:40.702Z,20.18
2022-09-10T01:01:54.272Z,20.19
2022-09-10T01:03:06.791Z,20.21
2022-09-10T01:04:20.087Z,20.22
2022-09-10T01:05:22.679Z,20.25
2022-09-10T01:06:36.116Z,20.21
2022-09-10T01:07:48.603Z,20.24
2022-09-10T01:08:52.080Z,20.22
2022-09-10T01:10:04.569Z,20.25
2022-09-10T01:11:18.150Z,20.22
2022-09-10T01:12:20.689Z,20.22
2022-09-10T01:13:34.109Z,20.24
2022-09-10T01:14:46.591Z,20.19
2022-09-10T01:15:50.083Z,20.19
2022-09-10T01:17:02.555Z,20.22
2022-09-10T01:18:16.108Z,20.22
2022-09-10T01:19:28.687Z,20.21
2022-09-10T01:20:32.083Z,20.24
2022-09-10T01:21:44.566Z,20.21
2022-09-10T01:22:58.115Z,20.27
2022-09-10T01:24:00.688Z,20.22
2022-09-10T01:25:14.090Z,20.24
2022-09-10T01:26:26.578Z,20.24
2022-09-10T01:27:30.075Z,20.27
2022-09-10T01:28:42.536Z,20.25
2022-09-10T01:29:56.097Z,20.28
2022-09-10T01:30:58.671Z,20.24
2022-09-10T01:32:12.100Z,20.27
2022-09-10T01:33:24.576Z,20.27
2022-09-10T01:34:28.095Z,20.29
2022-09-10T01:35:40.576Z,20.29
2022-09-10T01:36:53.624Z,20.34
2022-09-10T01:38:06.088Z,20.34
2022-09-10T01:39:09.609Z,20.32
2022-09-10T01:40:22.070Z,20.29
2022-09-10T01:41:35.132Z,20.28
2022-09-10T01:42:37.673Z,20.31
2022-09-10T01:43:51.090Z,20.29
2022-09-10T01:45:03.560Z,20.31
2022-09-10T01:46:07.105Z,20.29
2022-09-10T01:47:19.582Z,20.29
2022-09-10T01:48:32.626Z,20.29
2022-09-10T01:49:45.085Z,20.29
2022-09-10T01:50:48.597Z,20.32
2022-09-10T01:52:01.075Z,20.34
2022-09-10T01:53:14.613Z,20.34
2022-09-10T01:54:17.163Z,20.37
2022-09-10T01:55:30.589Z,20.35
2022-09-10T01:56:43.077Z,20.31
2022-09-10T01:57:46.632Z,20.35
2022-09-10T01:58:59.107Z,20.38
2022-09-10T02:00:12.591Z,20.35
2022-09-10T02:01:25.150Z,20.34
2022-09-10T02:02:28.621Z,20.38
2022-09-10T02:03:41.084Z,20.35
2022-09-10T02:04:54.607Z,20.37
2022-09-10T02:06:00.209Z,20.34
2022-09-10T02:07:13.602Z,20.32
2022-09-10T02:08:16.142Z,20.32
2022-09-10T02:09:29.624Z,20.32
2022-09-10T02:10:42.097Z,20.34
2022-09-10T02:11:45.611Z,20.37
2022-09-10T02:12:58.088Z,20.39
2022-09-10T02:14:11.615Z,20.37
2022-09-10T02:15:14.147Z,20.35
2022-09-10T02:16:27.690Z,20.37
2022-09-10T02:17:40.247Z,20.35
2022-09-10T02:18:53.624Z,20.37
2022-09-10T02:19:56.197Z,20.34
2022-09-10T02:21:09.640Z,20.29
2022-09-10T02:22:22.098Z,20.29
2022-09-10T02:23:25.643Z,20.28
2022-09-10T02:24:38.131Z,20.25
2022-09-10T02:25:51.608Z,20.22
2022-09-10T02:26:54.158Z,20.19
2022-09-10T02:28:07.599Z,20.22
2022-09-10T02:29:20.092Z,20.19
2022-09-10T02:30:33.632Z,20.21
2022-09-10T02:31:36.269Z,20.22
2022-09-10T02:32:49.613Z,20.21
2022-09-10T02:34:02.087Z,20.22
2022-09-10T02:35:05.645Z,20.19
2022-09-10T02:36:18.113Z,20.22
2022-09-10T02:37:31.639Z,20.21
2022-09-10T02:38:53.981Z,20.22
2022-09-10T02:39:47.652Z,20.25
2022-09-10T02:41:00.299Z,20.25
2022-09-10T02:42:03.656Z,20.28
2022-09-10T02:43:16.127Z,20.27
2022-09-10T02:44:29.611Z,20.29
2022-09-10T02:45:42.089Z,20.31
2022-09-10T02:46:45.639Z,20.32
2022-09-10T02:47:58.079Z,20.35
2022-09-10T02:49:11.151Z,20.34
2022-09-10T02:50:13.664Z,20.37
2022-09-10T02:51:27.140Z,20.38
2022-09-10T02:52:39.607Z,20.41
2022-09-10T02:53:43.120Z,20.41
2022-09-10T02:54:55.592Z,20.46
2022-09-10T02:56:08.623Z,20.42
2022-09-10T02:57:21.103Z,20.46
2022-09-10T02:58:24.613Z,20.46
2022-09-10T02:59:37.068Z,20.48
2022-09-10T03:00:50.213Z,20.49
2022-09-10T03:01:52.928Z,20.51
2022-09-10T03:03:06.133Z,20.52
2022-09-10T03:04:18.592Z,20.52
2022-09-10T03:05:31.711Z,20.51
2022-09-10T03:06:34.396Z,20.55
2022-09-10T03:07:47.631Z,20.54
2022-09-10T03:09:00.123Z,20.55
2022-09-10T03:10:03.657Z,20.52
2022-09-10T03:11:16.207Z,20.51
2022-09-10T03:12:29.616Z,20.55
2022-09-10T03:13:32.129Z,20.55
2022-09-10T03:14:45.122Z,20.52
2022-09-10T03:15:57.593Z,20.58
2022-09-10T03:17:10.666Z,20.57
2022-09-10T03:18:13.184Z,20.55
2022-09-10T03:19:26.650Z,20.54
2022-09-10T03:20:39.155Z,20.54
2022-09-10T03:21:42.627Z,20.58
2022-09-10T03:22:55.093Z,20.54
2022-09-10T03:24:08.783Z,20.55
2022-09-10T03:25:11.391Z,20.58
2022-09-10T03:26:24.639Z,20.58
2022-09-10T03:27:37.075Z,20.61
2022-09-10T03:28:50.138Z,20.65
2022-09-10T03:29:52.795Z,20.64
2022-09-10T03:31:06.127Z,20.66
2022-09-10T03:32:18.565Z,20.68
2022-09-10T03:33:21.615Z,20.7
2022-09-10T03:34:34.048Z,20.72
2022-09-10T03:35:47.132Z,20.76
2022-09-10T03:36:49.638Z,20.73
2022-09-10T03:38:02.633Z,20.76
2022-09-10T03:39:15.084Z,20.78
2022-09-10T03:40:28.157Z,20.8
2022-09-10T03:41:30.826Z,20.8
2022-09-10T03:42:44.155Z,20.82
2022-09-10T03:43:56.575Z,20.83
2022-09-10T03:45:00.115Z,20.85
2022-09-10T03:46:12.547Z,20.85
2022-09-10T03:47:25.672Z,20.86
2022-09-10T03:48:38.246Z,20.85
2022-09-10T03:49:41.662Z,20.83
2022-09-10T03:50:55.132Z,20.83
2022-09-10T03:52:08.146Z,20.83
2022-09-10T03:53:10.658Z,20.82
2022-09-10T03:54:23.835Z,20.8
2022-09-10T03:55:36.262Z,20.82
2022-09-10T03:56:39.630Z,20.86
2022-09-10T03:57:52.043Z,20.86
2022-09-10T03:59:05.130Z,20.85
2022-09-10T04:00:07.622Z,20.86
2022-09-10T04:01:20.741Z,20.85
2022-09-10T04:02:33.209Z,20.85
2022-09-10T04:03:46.634Z,20.88
2022-09-10T04:04:49.146Z,20.88
2022-09-10T04:06:02.165Z,20.88
2022-09-10T04:07:14.575Z,20.86
2022-09-10T04:08:18.139Z,20.85
2022-09-10T04:09:30.547Z,20.89
2022-09-10T04:10:43.626Z,20.89
2022-09-10T04:11:56.011Z,20.86
2022-09-10T04:12:59.634Z,20.88
2022-09-10T04:14:12.064Z,20.86
2022-09-10T04:15:25.138Z,20.86
2022-09-10T04:16:27.721Z,20.83
2022-09-10T04:17:41.175Z,20.86
2022-09-10T04:18:53.600Z,20.86
2022-09-10T04:19:56.656Z,20.85
2022-09-10T04:21:09.074Z,20.86
2022-09-10T04:22:22.144Z,20.88
2022-09-10T04:23:34.562Z,20.9
2022-09-10T04:24:37.638Z,20.86
2022-09-10T04:25:50.051Z,20.83
2022-09-10T04:27:03.162Z,20.83
2022-09-10T04:28:05.648Z,20.83
2022-09-10T04:29:18.742Z,20.83
2022-09-10T04:30:31.241Z,20.83
2022-09-10T04:31:44.987Z,20.83
2022-09-10T04:33:07.229Z,20.83
2022-09-10T04:34:00.634Z,20.82
2022-09-10T04:35:13.050Z,20.8
2022-09-10T04:36:16.149Z,20.83
2022-09-10T04:37:28.572Z,20.82
2022-09-10T04:38:41.640Z,20.79
2022-09-10T04:39:44.169Z,20.79
2022-09-10T04:40:57.657Z,20.76
2022-09-10T04:42:10.068Z,20.78
2022-09-10T04:43:23.177Z,20.76
2022-09-10T04:44:25.698Z,20.75
2022-09-10T04:45:39.211Z,20.78
2022-09-10T04:46:51.736Z,20.73
2022-09-10T04:47:55.133Z,20.76
2022-09-10T04:49:07.607Z,20.76
2022-09-10T04:50:20.646Z,20.76
2022-09-10T04:51:23.153Z,20.76
2022-09-10T04:52:36.137Z,20.75
2022-09-10T04:53:48.572Z,20.78
2022-09-10T04:55:02.163Z,20.76
2022-09-10T04:56:04.681Z,20.76
2022-09-10T04:57:17.662Z,20.78
2022-09-10T04:58:30.091Z,20.76
2022-09-10T04:59:33.183Z,20.79
2022-09-10T05:00:45.647Z,20.82
2022-09-10T05:01:59.164Z,20.82
2022-09-10T05:03:01.704Z,20.79
2022-09-10T05:04:15.188Z,20.8
2022-09-10T05:05:27.608Z,20.82
2022-09-10T05:06:40.689Z,20.79
2022-09-10T05:07:43.187Z,20.79
2022-09-10T05:08:56.685Z,20.75
2022-09-10T05:10:09.119Z,20.73
2022-09-10T05:11:12.669Z,20.75
2022-09-10T05:12:25.095Z,20.73
2022-09-10T05:13:38.152Z,20.7
2022-09-10T05:14:40.700Z,20.7
2022-09-10T05:15:54.196Z,20.68
2022-09-10T05:17:06.845Z,20.68
2022-09-10T05:18:20.200Z,20.62
2022-09-10T05:19:22.716Z,20.68
2022-09-10T05:20:36.161Z,20.64
2022-09-10T05:21:58.466Z,20.65
2022-09-10T05:22:52.372Z,20.64
2022-09-10T05:24:04.873Z,20.61
2022-09-10T05:25:18.155Z,20.65
2022-09-10T05:26:20.667Z,20.65
2022-09-10T05:27:33.769Z,20.66
2022-09-10T05:28:46.284Z,20.68
2022-09-10T05:29:59.696Z,20.65
2022-09-10T05:31:02.238Z,20.68
2022-09-10T05:32:15.696Z,20.62
2022-09-10T05:33:28.180Z,20.62
2022-09-10T05:34:31.761Z,20.62
2022-09-10T05:35:44.263Z,20.64
2022-09-10T05:36:57.681Z,20.68
2022-09-10T05:38:00.186Z,20.65
2022-09-10T05:39:13.462Z,20.65
2022-09-10T05:40:25.900Z,20.64
2022-09-10T05:41:39.166Z,20.65
2022-09-10T05:42:41.673Z,20.64
2022-09-10T05:43:54.685Z,20.65
2022-09-10T05:45:07.142Z,20.65
2022-09-10T05:46:10.731Z,20.68
2022-09-10T05:47:23.270Z,20.68
2022-09-10T05:48:39.741Z,20.66
2022-09-10T05:49:44.183Z,20.65
2022-09-10T05:50:57.700Z,20.65
2022-09-10T05:52:00.217Z,20.64
2022-09-10T05:53:13.669Z,20.62
2022-09-10T05:54:26.117Z,20.62
2022-09-10T05:55:39.174Z,20.62
2022-09-10T05:56:41.693Z,20.65
2022-09-10T05:57:54.673Z,20.61
2022-09-10T05:59:07.099Z,20.66
2022-09-10T06:00:10.175Z,20.72
2022-09-10T06:01:22.552Z,20.83
2022-09-10T06:02:35.806Z,20.93
2022-09-10T06:03:48.207Z,21.07
2022-09-10T06:04:51.189Z,21.19
2022-09-10T06:06:03.489Z,21.29
2022-09-10T06:07:16.674Z,21.41
2022-09-10T06:08:19.079Z,21.5
2022-09-10T06:09:32.212Z,21.57
2022-09-10T06:10:44.525Z,21.65
2022-09-10T06:11:57.718Z,21.68
2022-09-10T06:13:00.121Z,21.72
2022-09-10T06:14:13.204Z,21.77
2022-09-10T06:15:25.473Z,21.85
2022-09-10T06:17:08.189Z,21.92
2022-09-10T06:17:40.921Z,21.91
2022-09-10T06:18:53.146Z,21.98
2022-09-10T06:20:06.196Z,22.02
2022-09-10T06:21:08.468Z,22.08
2022-09-10T06:22:21.693Z,22.18
2022-09-10T06:23:33.930Z,22.22
2022-09-10T06:24:46.679Z,22.26
2022-09-10T06:25:48.949Z,22.28
2022-09-10T06:27:01.713Z,22.35
2022-09-10T06:28:13.993Z,22.33
2022-09-10T06:29:27.201Z,22.36
2022-09-10T06:30:29.504Z,22.41
2022-09-10T06:31:42.700Z,22.42
2022-09-10T06:32:54.923Z,22.46
2022-09-10T06:33:58.218Z,22.45
2022-09-10T06:35:10.402Z,22.45
2022-09-10T06:36:23.698Z,22.45
2022-09-10T06:37:35.897Z,22.49
2022-09-10T06:38:40.118Z,22.48
2022-09-10T06:39:52.441Z,22.46
2022-09-10T06:41:05.187Z,22.45
2022-09-10T06:42:07.475Z,22.46
2022-09-10T06:43:20.198Z,22.48
2022-09-10T06:44:46.598Z,22.48
2022-09-10T06:45:39.109Z,22.5
2022-09-10T06:47:19.905Z,22.53
2022-09-10T06:49:14.556Z,22.56
2022-09-10T06:50:17.906Z,22.6
2022-09-10T06:51:29.982Z,22.67
2022-09-10T06:52:43.160Z,22.7
2022-09-10T06:53:45.454Z,22.72
2022-09-10T06:54:58.092Z,22.72
2022-09-10T06:56:10.264Z,22.74
2022-09-10T06:57:23.132Z,22.73
2022-09-10T06:58:25.460Z,22.7
2022-09-10T06:59:38.673Z,22.66
2022-09-10T07:01:00.621Z,22.66
2022-09-10T07:02:03.655Z,22.67
2022-09-10T07:03:05.989Z,22.64
2022-09-10T07:04:19.131Z,22.69
2022-09-10T07:05:31.320Z,22.64
2022-09-10T07:06:34.630Z,22.64
2022-09-10T07:07:46.813Z,22.64
2022-09-10T07:08:59.638Z,22.63
2022-09-10T07:10:21.663Z,22.66
2022-09-10T07:11:15.118Z,22.62
2022-09-10T07:12:27.308Z,22.59
2022-09-10T07:13:40.132Z,22.57
2022-09-10T07:14:52.306Z,22.53
2022-09-10T07:15:55.160Z,22.52
2022-09-10T07:17:07.429Z,22.53
2022-09-10T07:18:20.629Z,22.5
2022-09-10T07:19:22.900Z,22.5
2022-09-10T07:20:35.617Z,22.5
2022-09-10T07:21:47.826Z,22.5
2022-09-10T07:23:00.614Z,22.53
2022-09-10T07:24:02.934Z,22.56
2022-09-10T07:25:16.128Z,22.52
2022-09-10T07:26:28.301Z,22.59
2022-09-10T07:27:41.145Z,22.59
2022-09-10T07:28:43.390Z,22.63
2022-09-10T07:29:56.130Z,22.63
2022-09-10T07:31:08.322Z,22.63
2022-09-10T07:32:13.461Z,22.67
2022-09-10T07:33:26.033Z,22.69
2022-09-10T07:34:39.126Z,22.72
2022-09-10T07:35:41.445Z,22.67
2022-09-10T07:36:54.128Z,22.69
2022-09-10T07:38:06.302Z,22.63
2022-09-10T07:39:22.340Z,22.62
2022-09-10T07:40:27.307Z,22.66
2022-09-10T07:41:30.254Z,22.66
2022-09-10T07:42:42.479Z,22.69
2022-09-10T07:43:55.648Z,22.7
2022-09-10T07:45:07.827Z,22.72
2022-09-10T07:46:11.181Z,22.69
2022-09-10T07:47:23.652Z,22.66
2022-09-10T07:48:36.642Z,22.63
2022-09-10T07:49:38.897Z,22.63
2022-09-10T07:50:51.642Z,22.6
2022-09-10T07:52:03.838Z,22.57
2022-09-10T07:53:16.642Z,22.59
2022-09-10T07:54:18.964Z,22.57
2022-09-10T07:55:32.177Z,22.54
2022-09-10T07:56:44.391Z,22.54
2022-09-10T07:57:47.653Z,22.53
2022-09-10T07:58:59.949Z,22.52
2022-09-10T08:00:13.168Z,22.56
2022-09-10T08:01:27.054Z,22.57
2022-09-10T08:02:31.672Z,22.53
2022-09-10T08:03:43.881Z,22.5
2022-09-10T08:04:47.117Z,22.48
2022-09-10T08:05:59.306Z,22.49
2022-09-10T08:07:12.126Z,22.49
2022-09-10T08:08:24.325Z,22.48
2022-09-10T08:09:27.658Z,22.5
2022-09-10T08:10:39.792Z,22.5
2022-09-10T08:11:52.659Z,22.49
2022-09-10T08:12:54.923Z,22.48
2022-09-10T08:14:08.134Z,22.49
2022-09-10T08:15:20.328Z,22.49
2022-09-10T08:16:33.151Z,22.49
2022-09-10T08:17:35.476Z,22.52
2022-09-10T08:18:48.685Z,22.53
2022-09-10T08:20:00.875Z,22.53
2022-09-10T08:21:13.669Z,22.54
2022-09-10T08:22:15.910Z,22.56
2022-09-10T08:23:28.643Z,22.53
2022-09-10T08:24:40.840Z,22.52
2022-09-10T08:25:53.694Z,22.54
2022-09-10T08:26:55.939Z,22.52
2022-09-10T08:28:09.150Z,22.52
2022-09-10T08:29:21.289Z,22.53
2022-09-10T08:30:24.137Z,22.54
2022-09-10T08:31:36.413Z,22.53
2022-09-10T08:32:49.157Z,22.5
2022-09-10T08:34:01.347Z,22.53
2022-09-10T08:35:04.675Z,22.57
2022-09-10T08:36:16.889Z,22.57
2022-09-10T08:37:29.631Z,22.54
2022-09-10T08:38:32.015Z,22.5
2022-09-10T08:39:45.178Z,22.52
2022-09-10T08:40:57.517Z,22.5
2022-09-10T08:42:10.668Z,22.52
2022-09-10T08:43:12.910Z,22.5
2022-09-10T08:44:25.655Z,22.46
2022-09-10T08:45:37.882Z,22.49
2022-09-10T08:46:50.657Z,22.48
2022-09-10T08:47:52.956Z,22.45
2022-09-10T08:49:06.159Z,22.45
2022-09-10T08:50:18.307Z,22.43
2022-09-10T08:51:21.385Z,22.45
2022-09-10T08:52:33.552Z,22.45
2022-09-10T08:53:46.649Z,22.45
2022-09-10T08:54:58.783Z,22.46
2022-09-10T08:56:01.647Z,22.5
2022-09-10T08:57:13.849Z,22.53
2022-09-10T08:58:26.631Z,22.56
2022-09-10T08:59:28.956Z,22.57
2022-09-10T09:00:41.633Z,22.63
2022-09-10T09:01:53.953Z,22.67
2022-09-10T09:03:07.168Z,22.7
2022-09-10T09:04:09.521Z,22.79
2022-09-10T09:05:22.677Z,22.8
2022-09-10T09:06:34.835Z,22.84
2022-09-10T09:07:47.668Z,22.87
2022-09-10T09:08:49.881Z,22.94
2022-09-10T09:10:02.683Z,22.9
2022-09-10T09:11:15.885Z,22.9
2022-09-10T09:12:18.654Z,22.87
2022-09-10T09:13:30.854Z,22.9
2022-09-10T09:14:43.656Z,22.86
2022-09-10T09:15:45.997Z,22.84
2022-09-10T09:16:59.138Z,22.84
2022-09-10T09:18:11.428Z,22.86
2022-09-10T09:19:24.149Z,22.87
2022-09-10T09:20:26.452Z,22.87
2022-09-10T09:21:39.150Z,22.9
2022-09-10T09:22:51.335Z,22.9
2022-09-10T09:24:13.242Z,22.93
2022-09-10T09:25:06.415Z,22.94
2022-09-10T09:26:19.644Z,22.99
2022-09-10T09:27:31.783Z,22.99
2022-09-10T09:28:34.635Z,23.03
2022-09-10T09:29:46.706Z,23.05
2022-09-10T09:30:59.747Z,23.08
2022-09-10T09:32:11.886Z,23.08
2022-09-10T09:33:15.206Z,23.11
2022-09-10T09:34:27.371Z,23.03
2022-09-10T09:35:40.961Z,23.03
2022-09-10T09:36:43.233Z,23.04
2022-09-10T09:37:56.205Z,23.05
2022-09-10T09:39:08.391Z,23.1
2022-09-10T09:40:21.169Z,23.07
2022-09-10T09:41:23.374Z,23.11
2022-09-10T09:42:36.186Z,23.13
2022-09-10T09:43:48.329Z,23.15
2022-09-10T09:45:01.197Z,23.18
2022-09-10T09:46:03.436Z,23.21
2022-09-10T09:47:16.699Z,23.2
2022-09-10T09:48:28.767Z,23.25
2022-09-10T09:49:31.674Z,23.25
2022-09-10T09:50:43.788Z,23.25
2022-09-10T09:51:56.696Z,23.25
2022-09-10T09:53:08.804Z,23.28
2022-09-10T09:55:26.600Z,23.32
2022-09-10T09:56:39.703Z,23.37
2022-09-10T09:57:41.967Z,23.39
2022-09-10T09:58:54.695Z,23.41
2022-09-10T10:00:06.809Z,23.42
2022-09-10T10:01:09.767Z,23.42
2022-09-10T10:02:21.966Z,23.44
2022-09-10T10:03:34.678Z,23.45
2022-09-10T10:04:46.748Z,23.44
2022-09-10T10:05:49.708Z,23.47
2022-09-10T10:07:01.771Z,23.47
2022-09-10T10:08:14.702Z,23.48
2022-09-10T10:09:26.709Z,23.51
2022-09-10T10:10:29.709Z,23.51
2022-09-10T10:11:41.778Z,23.51
2022-09-10T10:12:54.677Z,23.52
2022-09-10T10:13:56.887Z,23.54
2022-09-10T10:15:09.747Z,23.55
2022-09-10T10:16:21.840Z,23.52
2022-09-10T10:17:34.746Z,23.54
2022-09-10T10:18:37.009Z,23.54
2022-09-10T10:19:49.971Z,23.55
2022-09-10T10:21:01.957Z,23.55
2022-09-10T10:22:14.708Z,23.55
2022-09-10T10:23:16.837Z,23.56
2022-09-10T10:24:29.694Z,23.61
2022-09-10T10:25:41.765Z,23.59
2022-09-10T10:26:54.720Z,23.59
2022-09-10T10:27:56.933Z,23.61
2022-09-10T10:29:09.696Z,23.61
2022-09-10T10:30:21.690Z,23.61
2022-09-10T10:31:34.675Z,23.58
2022-09-10T10:32:36.795Z,23.62
2022-09-10T10:33:49.720Z,23.64
2022-09-10T10:35:01.780Z,23.62
2022-09-10T10:36:04.721Z,23.64
2022-09-10T10:37:16.716Z,23.64
2022-09-10T10:38:29.718Z,23.65
2022-09-10T10:39:41.777Z,23.66
2022-09-10T10:40:44.719Z,23.68
2022-09-10T10:41:56.716Z,23.68
2022-09-10T10:43:09.705Z,23.69
2022-09-10T10:44:21.737Z,23.69
2022-09-10T10:45:24.709Z,23.71
2022-09-10T10:46:36.920Z,23.72
2022-09-10T10:47:49.725Z,23.75
2022-09-10T10:49:03.942Z,23.78
2022-09-10T10:50:07.253Z,23.79
2022-09-10T10:51:19.308Z,23.79
2022-09-10T10:52:32.190Z,23.83
2022-09-10T10:53:34.378Z,23.83
2022-09-10T10:54:47.705Z,23.86
2022-09-10T10:55:59.740Z,23.85
2022-09-10T10:57:02.713Z,23.88
2022-09-10T10:58:14.743Z,23.89
2022-09-10T10:59:27.757Z,23.9
2022-09-10T11:00:39.771Z,23.9
2022-09-10T11:01:42.817Z,23.93
2022-09-10T11:02:54.925Z,23.95
2022-09-10T11:04:07.714Z,23.95
2022-09-10T11:05:19.750Z,23.93
2022-09-10T11:06:22.714Z,23.96
2022-09-10T11:07:34.735Z,23.93
2022-09-10T11:08:48.362Z,23.95
2022-09-10T11:09:50.742Z,23.95
2022-09-10T11:11:03.744Z,23.98
2022-09-10T11:12:15.823Z,23.99
2022-09-10T11:13:28.734Z,23.99
2022-09-10T11:14:30.865Z,23.99
2022-09-10T11:15:43.740Z,23.99
2022-09-10T11:16:58.753Z,23.99
2022-09-10T11:18:02.217Z,23.99
2022-09-10T11:19:14.284Z,23.99
2022-09-10T11:20:28.894Z,24.02
2022-09-10T11:21:32.032Z,24.0
2022-09-10T11:22:44.805Z,24.0
2022-09-10T11:23:56.866Z,23.99
2022-09-10T11:24:59.705Z,24.0
2022-09-10T11:26:11.774Z,24.02
2022-09-10T11:27:24.716Z,24.02
2022-09-10T11:28:26.916Z,24.03
2022-09-10T11:29:39.721Z,24.03
2022-09-10T11:30:51.810Z,24.07
2022-09-10T11:32:04.734Z,24.06
2022-09-10T11:33:06.914Z,24.07
2022-09-10T11:34:19.707Z,24.07
2022-09-10T11:35:31.739Z,24.07
2022-09-10T11:36:44.724Z,24.09
2022-09-10T11:37:46.945Z,24.1
2022-09-10T11:38:59.734Z,24.1
2022-09-10T11:40:11.789Z,24.1
2022-09-10T11:41:24.715Z,24.13
2022-09-10T11:42:42.458Z,24.14
2022-09-10T11:43:34.820Z,24.1
2022-09-10T11:44:47.504Z,24.13
2022-09-10T11:45:59.584Z,24.11
2022-09-10T11:47:12.487Z,24.16
2022-09-10T11:48:14.594Z,24.16
2022-09-10T11:49:27.481Z,24.14
2022-09-10T11:50:39.515Z,24.17
2022-09-10T11:51:52.498Z,24.16
2022-09-10T11:52:54.622Z,24.17
2022-09-10T11:54:07.501Z,24.19
2022-09-10T11:55:19.538Z,24.19
2022-09-10T11:56:32.524Z,24.19
2022-09-10T11:57:34.643Z,24.16
2022-09-10T11:58:47.477Z,24.19
2022-09-10T11:59:59.499Z,24.17
2022-09-10T12:01:02.494Z,24.17
2022-09-10T12:02:14.553Z,24.16
2022-09-10T12:03:27.511Z,24.23
2022-09-10T12:04:40.844Z,24.19
2022-09-10T12:05:44.973Z,24.22
2022-09-10T12:06:56.970Z,24.25
2022-09-10T12:08:09.991Z,24.23
2022-09-10T12:09:12.160Z,24.25
2022-09-10T12:10:24.967Z,24.26
2022-09-10T12:11:36.988Z,24.27
2022-09-10T12:12:50.032Z,24.27
2022-09-10T12:13:52.201Z,24.29
2022-09-10T12:15:05.001Z,24.3
2022-09-10T12:16:17.089Z,24.29
2022-09-10T12:17:19.997Z,24.32
2022-09-10T12:18:32.032Z,24.3
2022-09-10T12:19:44.990Z,24.34
2022-09-10T12:20:57.011Z,24.33
2022-09-10T12:22:00.008Z,24.34
2022-09-10T12:23:11.961Z,24.37
2022-09-10T12:24:24.520Z,24.37
2022-09-10T12:25:36.507Z,24.39
2022-09-10T12:26:39.518Z,24.41
2022-09-10T12:27:51.778Z,24.39
2022-09-10T12:29:04.487Z,24.43
2022-09-10T12:30:16.490Z,24.44
2022-09-10T12:31:19.586Z,24.46
2022-09-10T12:32:31.621Z,24.43
2022-09-10T12:33:44.752Z,24.44
2022-09-10T12:34:47.854Z,24.47
2022-09-10T12:36:00.540Z,24.49
2022-09-10T12:37:12.548Z,24.51
2022-09-10T12:38:25.495Z,24.51
2022-09-10T12:39:27.656Z,24.54
2022-09-10T12:40:41.002Z,24.54
2022-09-10T12:41:53.017Z,24.54
2022-09-10T12:43:06.023Z,24.57
2022-09-10T12:44:08.107Z,24.57
2022-09-10T12:45:20.987Z,24.57
2022-09-10T12:46:33.032Z,24.58
2022-09-10T12:47:36.003Z,24.61
2022-09-10T12:48:47.998Z,24.63
2022-09-10T12:50:01.033Z,24.63
2022-09-10T12:51:13.021Z,24.65
2022-09-10T12:52:16.004Z,24.67
2022-09-10T12:53:27.995Z,24.65
2022-09-10T12:54:40.486Z,24.68
2022-09-10T12:55:52.473Z,24.7
2022-09-10T12:56:55.488Z,24.7
2022-09-10T12:58:07.473Z,24.71
2022-09-10T12:59:19.991Z,24.74
2022-09-10T13:00:31.973Z,24.75
2022-09-10T13:01:35.056Z,24.72
2022-09-10T13:02:47.154Z,24.75
2022-09-10T13:04:00.019Z,24.78
2022-09-10T13:05:16.825Z,24.81
2022-09-10T13:06:18.953Z,24.81
2022-09-10T13:07:31.459Z,24.84
2022-09-10T13:08:33.508Z,24.87
2022-09-10T13:09:46.431Z,24.87
2022-09-10T13:10:58.410Z,24.87
2022-09-10T13:12:10.928Z,24.87
2022-09-10T13:13:12.977Z,24.87
2022-09-10T13:14:25.938Z,24.88
2022-09-10T13:15:37.949Z,24.9
2022-09-10T13:16:50.917Z,24.91
2022-09-10T13:17:53.043Z,24.92
2022-09-10T13:19:05.968Z,24.94
2022-09-10T13:20:17.938Z,24.92
2022-09-10T13:21:20.936Z,24.95
2022-09-10T13:22:32.902Z,24.88
2022-09-10T13:23:45.425Z,24.91
2022-09-10T13:24:57.394Z,24.9
2022-09-10T13:26:00.472Z,24.87
2022-09-10T13:27:12.439Z,24.87
2022-09-10T13:28:25.454Z,24.87
2022-09-10T13:29:37.375Z,24.85
2022-09-10T13:30:40.498Z,24.81
2022-09-10T13:31:52.504Z,24.81
2022-09-10T13:33:05.492Z,24.8
2022-09-10T13:34:07.661Z,24.8
2022-09-10T13:35:20.473Z,24.8
2022-09-10T13:36:32.398Z,24.78
2022-09-10T13:37:44.948Z,24.77
2022-09-10T13:38:47.092Z,24.77
2022-09-10T13:40:00.136Z,24.75
2022-09-10T13:41:12.374Z,24.75
2022-09-10T13:42:24.946Z,24.74
2022-09-10T13:43:27.039Z,24.74
2022-09-10T13:44:39.941Z,24.72
2022-09-10T13:45:51.985Z,24.74
2022-09-10T13:47:06.416Z,24.75
2022-09-10T13:48:08.726Z,24.77
2022-09-10T13:49:21.456Z,24.8
2022-09-10T13:50:33.446Z,24.81
2022-09-10T13:51:36.470Z,24.81
2022-09-10T13:52:48.457Z,24.84
2022-09-10T13:54:01.485Z,24.84
2022-09-10T13:55:03.624Z,24.85
2022-09-10T13:56:16.436Z,24.88
2022-09-10T13:57:28.422Z,24.88
2022-09-10T13:58:40.952Z,24.91
2022-09-10T13:59:43.126Z,24.91
2022-09-10T14:00:56.009Z,24.95
2022-09-10T14:02:07.994Z,24.95
2022-09-10T14:03:20.959Z,24.98
2022-09-10T14:04:23.122Z,25.01
2022-09-10T14:05:35.944Z,25.04
2022-09-10T14:06:47.908Z,25.08
2022-09-10T14:08:00.467Z,25.08
2022-09-10T14:09:02.592Z,25.12
2022-09-10T14:10:15.467Z,25.15
2022-09-10T14:11:27.419Z,25.18
2022-09-10T14:12:39.967Z,25.22
2022-09-10T14:13:42.024Z,25.19
2022-09-10T14:14:54.950Z,25.22
2022-09-10T14:16:06.874Z,25.23
2022-09-10T14:17:09.457Z,25.23
2022-09-10T14:18:21.292Z,25.23
2022-09-10T14:19:33.974Z,25.28
2022-09-10T14:20:45.857Z,25.29
2022-09-10T14:21:58.457Z,25.28
2022-09-10T14:23:00.491Z,25.31
2022-09-10T14:24:12.977Z,25.29
2022-09-10T14:25:24.846Z,25.29
2022-09-10T14:26:37.446Z,25.31
2022-09-10T14:27:39.469Z,25.29
2022-09-10T14:28:52.151Z,25.32
2022-09-10T14:30:04.348Z,25.29
2022-09-10T14:31:07.008Z,25.29
2022-09-10T14:32:18.848Z,25.32
2022-09-10T14:33:31.780Z,25.31
2022-09-10T14:34:44.568Z,25.28
2022-09-10T14:35:47.748Z,25.29
2022-09-10T14:36:59.613Z,25.28
2022-09-10T14:38:12.477Z,25.29
2022-09-10T14:39:24.480Z,25.28
2022-09-10T14:40:27.454Z,25.28
2022-09-10T14:41:39.441Z,25.29
2022-09-10T14:43:11.494Z,25.25
2022-09-10T14:43:55.344Z,25.26
2022-09-10T14:45:07.330Z,25.29
2022-09-10T14:46:20.124Z,25.26
2022-09-10T14:47:32.089Z,25.28
2022-09-10T14:48:34.981Z,25.29
2022-09-10T14:49:46.926Z,25.28
2022-09-10T14:50:59.464Z,25.29
2022-09-10T14:52:11.407Z,25.28
2022-09-10T14:53:14.497Z,25.23
2022-09-10T14:54:26.442Z,25.28
2022-09-10T14:55:38.971Z,25.29
2022-09-10T14:56:41.082Z,25.28
2022-09-10T14:57:53.977Z,25.25
2022-09-10T14:59:05.905Z,25.23
2022-09-10T15:00:18.485Z,25.26
2022-09-10T15:01:20.599Z,25.25
2022-09-10T15:02:33.500Z,25.25
2022-09-10T15:03:45.449Z,25.23